createdAt,value
2018-03-04T00:01:03.657Z,-3.01
2018-03-04T00:06:04.015Z,-2.81
2018-03-04T00:11:03.422Z,-2.71
2018-03-04T00:16:03.452Z,-2.81
2018-03-04T00:21:03.875Z,-2.81
2018-03-04T00:26:03.843Z,-2.81
2018-03-04T00:31:03.900Z,-2.81
2018-03-04T00:36:03.290Z,-2.61
2018-03-04T00:41:03.667Z,-2.51
2018-03-04T00:46:04.397Z,-2.61
2018-03-04T00:51:04.726Z,-2.51
2018-03-04T00:56:04.772Z,-2.21
2018-03-04T01:01:03.818Z,-2.01
2018-03-04T01:06:04.167Z,-2.11
2018-03-04T01:11:04.572Z,-1.71
2018-03-04T01:16:04.638Z,-1.61
2018-03-04T01:21:04.011Z,-1.21
2018-03-04T01:26:04.007Z,-1.01
2018-03-04T01:31:04.037Z,-0.91
2018-03-04T01:36:04.412Z,-0.91
2018-03-04T01:41:04.047Z,-0.81
2018-03-04T01:46:03.953Z,-0.61
2018-03-04T01:51:04.212Z,-0.61
2018-03-04T01:56:03.516Z,0.09
2018-03-04T02:01:04.114Z,-0.21
2018-03-04T02:06:08.137Z,-0.21
2018-03-04T02:11:03.306Z,-0.21
2018-03-04T02:16:03.375Z,-0.11
2018-03-04T02:21:03.780Z,-0.11
2018-03-04T02:26:03.783Z,-0.01
2018-03-04T02:31:04.234Z,-0.01
2018-03-04T02:36:03.563Z,0.09
2018-03-04T02:41:04.941Z,0.09
2018-03-04T02:46:03.741Z,0.29
2018-03-04T02:51:04.046Z,0.29
2018-03-04T02:56:04.006Z,0.09
2018-03-04T03:01:04.028Z,0.19
2018-03-04T03:06:03.390Z,0.19
2018-03-04T03:11:03.754Z,0.19
2018-03-04T03:16:03.854Z,0.29
2018-03-04T03:21:03.245Z,0.39
2018-03-04T03:26:03.258Z,0.39
2018-03-04T03:31:03.448Z,0.39
2018-03-04T03:36:03.601Z,0.49
2018-03-04T03:41:04.009Z,0.49
2018-03-04T03:46:04.053Z,0.49
2018-03-04T03:51:03.451Z,0.59
2018-03-04T03:56:03.438Z,0.59
2018-03-04T04:01:03.485Z,0.69
2018-03-04T04:06:03.830Z,0.69
2018-03-04T04:11:03.220Z,0.79
2018-03-04T04:16:03.278Z,0.89
2018-03-04T04:21:03.697Z,0.79
2018-03-04T04:26:03.686Z,0.89
2018-03-04T04:31:03.729Z,0.99
2018-03-04T04:36:04.049Z,0.89
2018-03-04T04:41:03.483Z,1.09
2018-03-04T04:46:03.530Z,0.99
2018-03-04T04:51:03.863Z,0.99
2018-03-04T04:56:03.876Z,1.09
2018-03-04T05:01:03.932Z,1.09
2018-03-04T05:06:03.291Z,1.09
2018-03-04T05:11:03.697Z,1.19
2018-03-04T05:16:03.715Z,1.19
2018-03-04T05:21:04.116Z,1.29
2018-03-04T05:26:03.954Z,1.29
2018-03-04T05:31:04.020Z,1.39
2018-03-04T05:36:03.349Z,1.39
2018-03-04T05:41:03.740Z,1.39
2018-03-04T05:46:03.809Z,1.39
2018-03-04T05:51:03.376Z,1.49
2018-03-04T05:56:03.352Z,1.59
2018-03-04T06:01:03.509Z,1.59
2018-03-04T06:06:03.755Z,1.59
2018-03-04T06:11:03.140Z,1.59
2018-03-04T06:16:03.213Z,1.59
2018-03-04T06:21:03.565Z,1.59
2018-03-04T06:26:03.565Z,1.69
2018-03-04T06:31:03.634Z,1.79
2018-03-04T06:36:03.968Z,1.79
2018-03-04T06:41:03.365Z,1.79
2018-03-04T06:46:03.413Z,1.89
2018-03-04T06:51:03.766Z,1.89
2018-03-04T06:56:03.763Z,1.89
2018-03-04T07:01:03.828Z,1.89
2018-03-04T07:06:03.181Z,1.89
2018-03-04T07:11:03.571Z,1.89
2018-03-04T07:16:03.626Z,2.09
2018-03-04T07:21:03.995Z,1.99
2018-03-04T07:26:03.987Z,2.09
2018-03-04T07:31:04.034Z,2.09
2018-03-04T07:36:03.433Z,2.19
2018-03-04T07:41:03.817Z,2.19
2018-03-04T07:46:03.850Z,2.29
2018-03-04T07:51:03.199Z,2.29
2018-03-04T07:56:03.208Z,2.29
2018-03-04T08:01:03.207Z,2.39
2018-03-04T08:06:03.572Z,2.49
2018-03-04T08:11:03.962Z,2.59
2018-03-04T08:16:04.037Z,2.59
2018-03-04T08:21:03.399Z,2.69
2018-03-04T08:26:03.393Z,2.79
2018-03-04T08:31:03.455Z,2.89
2018-03-04T08:36:03.838Z,3.09
2018-03-04T08:41:03.225Z,3.19
2018-03-04T08:46:03.239Z,3.29
2018-03-04T08:51:03.588Z,3.39
2018-03-04T08:56:03.614Z,3.49
2018-03-04T09:01:03.670Z,3.59
2018-03-04T09:06:04.048Z,3.59
2018-03-04T09:11:03.394Z,3.59
2018-03-04T09:16:03.470Z,3.99
2018-03-04T09:21:03.855Z,3.99
2018-03-04T09:26:03.825Z,4.29
2018-03-04T09:31:03.868Z,4.69
2018-03-04T09:36:03.254Z,4.89
2018-03-04T09:41:03.643Z,5.29
2018-03-04T09:46:03.693Z,5.49
2018-03-04T09:51:04.042Z,5.99
2018-03-04T09:56:04.042Z,6.19
2018-03-04T10:01:04.070Z,6.39
2018-03-04T10:06:03.435Z,6.59
2018-03-04T10:11:03.792Z,6.59
2018-03-04T10:16:03.849Z,6.89
2018-03-04T10:21:03.249Z,6.99
2018-03-04T10:26:03.253Z,6.99
2018-03-04T10:31:03.303Z,7.09
2018-03-04T10:36:03.629Z,7.19
2018-03-04T10:41:04.051Z,7.29
2018-03-04T10:46:03.109Z,7.69
2018-03-04T10:51:03.490Z,7.79
2018-03-04T10:56:03.454Z,7.59
2018-03-04T11:01:03.476Z,7.59
2018-03-04T11:06:03.863Z,7.79
2018-03-04T11:11:03.255Z,8.09
2018-03-04T11:16:03.280Z,8.29
2018-03-04T11:21:03.699Z,8.89
2018-03-04T11:26:03.698Z,9.09
2018-03-04T11:31:03.748Z,8.89
2018-03-04T11:36:04.080Z,9.19
2018-03-04T11:41:03.485Z,9.49
2018-03-04T11:46:03.533Z,9.59
2018-03-04T11:51:03.904Z,9.69
2018-03-04T11:56:03.870Z,9.89
2018-03-04T12:01:03.937Z,9.99
2018-03-04T12:06:03.270Z,9.79
2018-03-04T12:11:03.668Z,9.69
2018-03-04T12:16:03.711Z,9.69
2018-03-04T12:21:04.161Z,10.09
2018-03-04T12:26:03.140Z,10.39
2018-03-04T12:31:03.175Z,10.58
2018-03-04T12:36:03.507Z,10.68
2018-03-04T12:41:04.576Z,10.98
2018-03-04T12:46:04.662Z,11.28
2018-03-04T12:51:03.964Z,11.35
2018-03-04T12:56:04.020Z,11.78
2018-03-04T13:01:04.048Z,11.74
2018-03-04T13:06:04.400Z,11.93
2018-03-04T13:11:03.821Z,11.45
2018-03-04T13:16:03.891Z,11.75
2018-03-04T13:21:04.226Z,11.92
2018-03-04T13:26:04.234Z,11.88
2018-03-04T13:31:04.261Z,11.64
2018-03-04T13:36:04.624Z,12.03
2018-03-04T13:41:04.002Z,12.25
2018-03-04T13:46:04.001Z,12.12
2018-03-04T13:51:03.761Z,12.16
2018-03-04T13:56:03.756Z,12.37
2018-03-04T14:01:03.805Z,12.67
2018-03-04T14:06:04.403Z,12.67
2018-03-04T14:11:03.625Z,12.08
2018-03-04T14:16:03.578Z,12.29
2018-03-04T14:21:04.012Z,12.17
2018-03-04T14:26:04.158Z,12.07
2018-03-04T14:31:04.082Z,11.92
2018-03-04T14:36:03.988Z,11.99
2018-03-04T14:41:03.771Z,11.64
2018-03-04T14:46:03.924Z,11.76
2018-03-04T14:51:03.215Z,11.77
2018-03-04T14:56:03.229Z,11.46
2018-03-04T15:01:03.262Z,11.68
2018-03-04T15:06:03.771Z,11.57
2018-03-04T15:11:03.988Z,11.34
2018-03-04T15:16:04.065Z,11.13
2018-03-04T15:21:03.443Z,10.98
2018-03-04T15:26:03.763Z,10.94
2018-03-04T15:31:03.479Z,11.20
2018-03-04T15:36:03.891Z,10.99
2018-03-04T15:41:03.255Z,11.00
2018-03-04T15:46:03.468Z,10.80
2018-03-04T15:51:03.656Z,11.00
2018-03-04T15:56:03.634Z,10.94
2018-03-04T16:01:03.707Z,10.90
2018-03-04T16:06:04.153Z,10.80
2018-03-04T16:11:03.932Z,10.79
2018-03-04T16:16:03.534Z,10.59
2018-03-04T16:21:03.901Z,10.56
2018-03-04T16:26:03.912Z,10.45
2018-03-04T16:31:04.808Z,10.38
2018-03-04T16:36:04.618Z,10.28
2018-03-04T16:41:05.063Z,10.13
2018-03-04T16:46:04.136Z,10.14
2018-03-04T16:51:04.137Z,9.99
2018-03-04T16:56:04.136Z,9.97
2018-03-04T17:01:03.221Z,9.79
2018-03-04T17:06:03.505Z,9.69
2018-03-04T17:11:03.906Z,9.69
2018-03-04T17:16:04.422Z,9.59
2018-03-04T17:21:03.375Z,9.49
2018-03-04T17:26:03.571Z,9.49
2018-03-04T17:31:04.780Z,9.39
2018-03-04T17:36:04.435Z,9.39
2018-03-04T17:41:04.265Z,9.29
2018-03-04T17:46:04.176Z,9.09
2018-03-04T17:51:03.989Z,9.09
2018-03-04T17:56:04.580Z,9.09
2018-03-04T18:01:04.837Z,8.99
2018-03-04T18:06:04.180Z,8.99
2018-03-04T18:11:03.380Z,8.89
2018-03-04T18:16:04.282Z,8.89
2018-03-04T18:21:03.832Z,8.89
2018-03-04T18:26:04.254Z,8.89
2018-03-04T18:31:03.845Z,8.79
2018-03-04T18:36:03.673Z,8.79
2018-03-04T18:41:03.750Z,8.69
2018-03-04T18:46:03.781Z,8.19
2018-03-04T18:51:04.358Z,8.29
2018-03-04T18:56:05.873Z,8.39
2018-03-04T19:01:05.167Z,8.29
2018-03-04T19:06:04.630Z,8.29
2018-03-04T19:11:05.419Z,8.29
2018-03-04T19:16:05.269Z,8.29
2018-03-04T19:21:04.493Z,8.19
2018-03-04T19:26:04.736Z,8.19
2018-03-04T19:31:04.710Z,8.19
2018-03-04T19:36:05.087Z,8.19
2018-03-04T19:41:04.601Z,8.19
2018-03-04T19:46:05.033Z,8.19
2018-03-04T19:51:04.885Z,8.19
2018-03-04T19:56:04.842Z,8.19
2018-03-04T20:01:05.185Z,8.19
2018-03-04T20:06:05.195Z,8.19
2018-03-04T20:11:04.703Z,7.99
2018-03-04T20:16:04.719Z,7.99
2018-03-04T20:21:05.138Z,7.99
2018-03-04T20:26:04.769Z,7.99
2018-03-04T20:31:05.210Z,7.89
2018-03-04T20:36:04.681Z,7.89
2018-03-04T20:41:05.010Z,7.89
2018-03-04T20:46:04.823Z,7.79
2018-03-04T20:51:04.901Z,7.89
2018-03-04T20:56:05.242Z,7.89
2018-03-04T21:01:05.217Z,7.89
2018-03-04T21:06:03.974Z,7.79
2018-03-04T21:11:04.808Z,7.89
2018-03-04T21:16:04.935Z,7.89
2018-03-04T21:21:04.102Z,7.89
2018-03-04T21:26:03.974Z,7.89
2018-03-04T21:31:03.905Z,7.89
2018-03-04T21:36:03.859Z,7.99
2018-03-04T21:41:03.570Z,7.99
2018-03-04T21:46:03.612Z,8.09
2018-03-04T21:51:03.962Z,8.09
2018-03-04T21:56:03.942Z,8.09
2018-03-04T22:01:03.988Z,8.09
2018-03-04T22:06:03.346Z,8.09
2018-03-04T22:11:03.751Z,8.19
2018-03-04T22:16:03.785Z,8.19
2018-03-04T22:21:03.217Z,8.19
2018-03-04T22:26:03.178Z,8.19
2018-03-04T22:31:03.237Z,8.29
2018-03-04T22:36:03.602Z,8.29
2018-03-04T22:41:03.991Z,8.29
2018-03-04T22:46:03.337Z,8.29
2018-03-04T22:51:03.783Z,8.29
2018-03-04T22:56:03.980Z,8.29
2018-03-04T23:01:03.264Z,8.29
2018-03-04T23:06:03.694Z,8.29
2018-03-04T23:11:03.335Z,8.29
2018-03-04T23:16:03.571Z,8.29
2018-03-04T23:21:04.049Z,8.29
2018-03-04T23:26:03.245Z,8.29
2018-03-04T23:31:03.537Z,8.29
2018-03-04T23:36:03.978Z,8.19
2018-03-04T23:41:03.577Z,8.19
2018-03-04T23:46:03.837Z,8.09
2018-03-04T23:51:03.273Z,8.09
2018-03-04T23:56:03.658Z,8.09
